createdAt,value
2019-05-29T00:00:50.365Z,99.99
2019-05-29T00:01:50.254Z,99.99
2019-05-29T00:02:50.248Z,99.99
2019-05-29T00:03:50.233Z,99.99
2019-05-29T00:04:50.222Z,99.99
2019-05-29T00:05:50.210Z,99.99
2019-05-29T00:06:50.200Z,99.99
2019-05-29T00:07:50.187Z,99.99
2019-05-29T00:08:50.175Z,99.99
2019-05-29T00:09:50.166Z,99.99
2019-05-29T00:10:50.155Z,99.99
2019-05-29T00:11:50.143Z,99.99
2019-05-29T00:12:50.132Z,99.99
2019-05-29T00:13:50.121Z,99.99
2019-05-29T00:14:50.113Z,99.99
2019-05-29T00:15:50.100Z,99.99
2019-05-29T00:16:50.087Z,99.99
2019-05-29T00:17:50.078Z,99.99
2019-05-29T00:18:50.067Z,99.99
2019-05-29T00:19:50.055Z,99.99
2019-05-29T00:20:50.046Z,99.99
2019-05-29T00:21:50.034Z,99.99
2019-05-29T00:22:50.022Z,99.99
2019-05-29T00:23:50.015Z,99.99
2019-05-29T00:24:50.001Z,99.99
2019-05-29T00:25:49.988Z,99.99
2019-05-29T00:26:49.977Z,99.99
2019-05-29T00:27:49.965Z,99.99
2019-05-29T00:28:49.955Z,99.99
2019-05-29T00:29:49.945Z,99.99
2019-05-29T00:30:49.932Z,99.99
2019-05-29T00:31:49.921Z,99.99
2019-05-29T00:32:49.911Z,99.99
2019-05-29T00:33:49.898Z,99.99
2019-05-29T00:34:49.888Z,99.99
2019-05-29T00:35:49.876Z,99.99
2019-05-29T00:36:49.873Z,99.99
2019-05-29T00:37:49.852Z,99.99
2019-05-29T00:38:49.891Z,99.99
2019-05-29T00:39:49.831Z,99.99
2019-05-29T00:40:49.819Z,99.99
2019-05-29T00:41:49.807Z,99.99
2019-05-29T00:42:49.796Z,99.99
2019-05-29T00:43:49.784Z,99.99
2019-05-29T00:44:49.774Z,99.99
2019-05-29T00:45:49.767Z,99.99
2019-05-29T00:46:49.751Z,99.99
2019-05-29T00:47:49.739Z,99.99
2019-05-29T00:48:49.726Z,99.99
2019-05-29T00:49:49.756Z,99.99
2019-05-29T00:50:49.704Z,99.99
2019-05-29T00:51:49.693Z,99.99
2019-05-29T00:52:49.681Z,99.99
2019-05-29T00:53:49.669Z,99.99
2019-05-29T00:54:49.659Z,99.99
2019-05-29T00:55:49.647Z,99.99
2019-05-29T00:56:49.636Z,99.99
2019-05-29T00:57:49.623Z,99.99
2019-05-29T00:58:49.614Z,99.99
2019-05-29T00:59:49.603Z,99.99
2019-05-29T01:00:49.589Z,99.99
2019-05-29T01:01:49.578Z,99.99
2019-05-29T01:02:49.721Z,99.99
2019-05-29T01:03:49.555Z,99.99
2019-05-29T01:04:49.542Z,99.99
2019-05-29T01:05:49.532Z,99.99
2019-05-29T01:06:49.519Z,99.99
2019-05-29T01:07:49.509Z,99.99
2019-05-29T01:08:49.495Z,99.99
2019-05-29T01:09:49.484Z,99.99
2019-05-29T01:10:49.473Z,99.99
2019-05-29T01:11:49.462Z,99.99
2019-05-29T01:12:49.477Z,99.99
2019-05-29T01:13:49.437Z,99.99
2019-05-29T01:14:50.628Z,99.99
2019-05-29T01:15:49.415Z,99.99
2019-05-29T01:16:49.402Z,99.99
2019-05-29T01:17:49.391Z,99.99
2019-05-29T01:18:49.378Z,99.99
2019-05-29T01:19:49.368Z,99.99
2019-05-29T01:20:49.355Z,99.99
2019-05-29T01:21:49.343Z,99.99
2019-05-29T01:22:49.333Z,99.99
2019-05-29T01:23:49.320Z,99.99
2019-05-29T01:24:49.311Z,99.99
2019-05-29T01:25:49.296Z,99.99
2019-05-29T01:26:49.285Z,99.99
2019-05-29T01:27:49.282Z,99.99
2019-05-29T01:28:49.260Z,99.99
2019-05-29T01:29:49.248Z,99.99
2019-05-29T01:30:51.612Z,99.99
2019-05-29T01:31:49.226Z,99.99
2019-05-29T01:32:49.213Z,99.99
2019-05-29T01:33:49.202Z,99.99
2019-05-29T01:34:49.191Z,99.99
2019-05-29T01:35:49.179Z,99.99
2019-05-29T01:36:49.165Z,99.99
2019-05-29T01:37:49.154Z,99.99
2019-05-29T01:38:49.147Z,99.99
2019-05-29T01:39:49.130Z,99.99
2019-05-29T01:40:49.118Z,99.99
2019-05-29T01:41:49.106Z,99.99
2019-05-29T01:42:50.076Z,99.99
2019-05-29T01:43:49.085Z,99.99
2019-05-29T01:45:06.021Z,99.99
2019-05-29T01:45:49.059Z,99.99
2019-05-29T01:46:49.046Z,99.99
2019-05-29T01:47:49.036Z,99.99
2019-05-29T01:48:49.023Z,99.99
2019-05-29T01:49:49.011Z,99.99
2019-05-29T01:50:48.998Z,99.99
2019-05-29T01:51:48.986Z,99.99
2019-05-29T01:52:48.974Z,99.99
2019-05-29T01:53:48.962Z,99.99
2019-05-29T01:54:48.949Z,99.99
2019-05-29T01:55:48.937Z,99.99
2019-05-29T01:56:48.925Z,99.99
2019-05-29T01:57:48.917Z,99.99
2019-05-29T01:58:48.902Z,99.99
2019-05-29T01:59:48.890Z,99.99
2019-05-29T02:00:48.880Z,99.99
2019-05-29T02:01:48.867Z,99.99
2019-05-29T02:02:48.855Z,99.99
2019-05-29T02:03:48.842Z,99.99
2019-05-29T02:04:48.828Z,99.99
2019-05-29T02:05:48.819Z,99.99
2019-05-29T02:06:48.813Z,99.99
2019-05-29T02:07:48.794Z,99.99
2019-05-29T02:08:48.803Z,99.99
2019-05-29T02:09:48.775Z,99.99
2019-05-29T02:10:48.758Z,99.99
2019-05-29T02:11:48.746Z,99.99
2019-05-29T02:12:48.734Z,99.99
2019-05-29T02:13:48.727Z,99.99
2019-05-29T02:14:48.711Z,99.99
2019-05-29T02:15:48.712Z,99.99
2019-05-29T02:16:48.682Z,99.99
2019-05-29T02:17:48.670Z,99.99
2019-05-29T02:18:48.658Z,99.99
2019-05-29T02:19:48.646Z,99.99
2019-05-29T02:20:48.644Z,99.99
2019-05-29T02:21:48.622Z,99.99
2019-05-29T02:22:48.615Z,99.99
2019-05-29T02:23:48.598Z,99.99
2019-05-29T02:24:48.592Z,99.99
2019-05-29T02:25:48.577Z,99.99
2019-05-29T02:26:48.565Z,99.99
2019-05-29T02:27:48.557Z,99.99
2019-05-29T02:28:48.540Z,99.99
2019-05-29T02:29:48.528Z,99.99
2019-05-29T02:30:48.516Z,99.99
2019-05-29T02:31:48.504Z,99.99
2019-05-29T02:32:48.495Z,99.99
2019-05-29T02:33:48.496Z,99.99
2019-05-29T02:34:48.467Z,99.99
2019-05-29T02:35:48.455Z,99.99
2019-05-29T02:36:48.447Z,99.99
2019-05-29T02:37:48.431Z,99.99
2019-05-29T02:38:48.418Z,99.99
2019-05-29T02:39:48.406Z,99.99
2019-05-29T02:40:48.493Z,99.99
2019-05-29T02:41:48.380Z,99.99
2019-05-29T02:42:48.375Z,99.99
2019-05-29T02:43:48.360Z,99.99
2019-05-29T02:44:48.345Z,99.99
2019-05-29T02:45:54.458Z,99.99
2019-05-29T02:46:48.320Z,99.99
2019-05-29T02:47:48.308Z,99.99
2019-05-29T02:48:48.293Z,99.99
2019-05-29T02:49:48.283Z,99.99
2019-05-29T02:50:48.270Z,99.99
2019-05-29T02:51:48.258Z,99.99
2019-05-29T02:52:48.246Z,99.99
2019-05-29T02:53:48.232Z,99.99
2019-05-29T02:54:48.222Z,99.99
2019-05-29T02:55:48.207Z,99.99
2019-05-29T02:56:48.196Z,99.99
2019-05-29T02:57:48.189Z,99.99
2019-05-29T02:58:48.171Z,99.99
2019-05-29T02:59:48.165Z,99.99
2019-05-29T03:00:48.144Z,99.99
2019-05-29T03:01:48.131Z,99.99
2019-05-29T03:02:48.119Z,99.99
2019-05-29T03:03:48.117Z,99.99
2019-05-29T03:04:48.094Z,99.99
2019-05-29T03:05:48.082Z,99.99
2019-05-29T03:06:48.069Z,99.99
2019-05-29T03:07:48.062Z,99.99
2019-05-29T03:08:48.064Z,99.99
2019-05-29T03:09:48.033Z,99.99
2019-05-29T03:10:48.021Z,99.99
2019-05-29T03:11:48.108Z,99.99
2019-05-29T03:12:47.996Z,99.99
2019-05-29T03:13:47.981Z,99.99
2019-05-29T03:14:47.971Z,99.99
2019-05-29T03:15:47.951Z,99.99
2019-05-29T03:16:47.950Z,99.99
2019-05-29T03:17:47.924Z,99.99
2019-05-29T03:18:47.913Z,99.99
2019-05-29T03:19:47.903Z,99.99
2019-05-29T03:20:47.891Z,99.99
2019-05-29T03:21:47.877Z,99.99
2019-05-29T03:22:47.863Z,99.99
2019-05-29T03:23:47.851Z,99.99
2019-05-29T03:24:47.838Z,99.99
2019-05-29T03:25:47.824Z,99.99
2019-05-29T03:26:47.812Z,99.99
2019-05-29T03:27:47.800Z,99.99
2019-05-29T03:28:47.788Z,99.99
2019-05-29T03:29:47.775Z,99.99
2019-05-29T03:30:47.762Z,99.99
2019-05-29T03:31:48.457Z,99.99
2019-05-29T03:32:49.041Z,99.99
2019-05-29T03:33:50.214Z,99.99
2019-05-29T03:34:48.235Z,99.99
2019-05-29T03:35:48.737Z,99.99
2019-05-29T03:36:49.041Z,99.99
2019-05-29T03:37:47.673Z,99.99
2019-05-29T03:38:47.667Z,99.99
2019-05-29T03:39:47.648Z,99.99
2019-05-29T03:40:47.638Z,99.99
2019-05-29T03:41:47.623Z,99.99
2019-05-29T03:42:47.610Z,99.99
2019-05-29T03:43:47.599Z,99.99
2019-05-29T03:44:47.585Z,99.99
2019-05-29T03:45:47.574Z,99.99
2019-05-29T03:46:47.560Z,99.99
2019-05-29T03:47:47.547Z,99.99
2019-05-29T03:48:47.541Z,99.99
2019-05-29T03:49:47.529Z,99.99
2019-05-29T03:50:47.511Z,99.99
2019-05-29T03:51:47.498Z,99.99
2019-05-29T03:52:47.485Z,99.99
2019-05-29T03:53:47.471Z,99.99
2019-05-29T03:54:47.461Z,99.99
2019-05-29T03:55:47.447Z,99.99
2019-05-29T03:56:47.439Z,99.99
2019-05-29T03:57:47.421Z,99.99
2019-05-29T03:58:47.410Z,99.99
2019-05-29T03:59:47.396Z,99.99
2019-05-29T04:00:48.889Z,99.99
2019-05-29T04:01:47.372Z,99.99
2019-05-29T04:02:47.367Z,99.99
2019-05-29T04:03:47.351Z,99.99
2019-05-29T04:04:47.334Z,99.99
2019-05-29T04:05:47.321Z,99.99
2019-05-29T04:06:47.660Z,99.99
2019-05-29T04:07:47.296Z,99.99
2019-05-29T04:08:47.285Z,99.99
2019-05-29T04:09:47.271Z,99.99
2019-05-29T04:10:47.258Z,99.99
2019-05-29T04:11:47.247Z,99.99
2019-05-29T04:12:47.232Z,99.99
2019-05-29T04:13:47.220Z,99.99
2019-05-29T04:14:47.222Z,99.99
2019-05-29T04:15:47.196Z,99.99
2019-05-29T04:16:59.327Z,99.99
2019-05-29T04:17:47.172Z,99.99
2019-05-29T04:18:47.162Z,99.99
2019-05-29T04:19:47.145Z,99.99
2019-05-29T04:20:47.131Z,99.99
2019-05-29T04:21:47.127Z,99.99
2019-05-29T04:22:47.107Z,99.99
2019-05-29T04:23:47.096Z,99.99
2019-05-29T04:24:47.097Z,99.99
2019-05-29T04:25:47.070Z,99.99
2019-05-29T04:26:47.090Z,99.99
2019-05-29T04:27:47.044Z,99.99
2019-05-29T04:28:47.030Z,99.99
2019-05-29T04:29:47.021Z,99.99
2019-05-29T04:30:47.007Z,99.99
2019-05-29T04:31:46.994Z,99.99
2019-05-29T04:32:46.986Z,99.99
2019-05-29T04:33:46.970Z,99.99
2019-05-29T04:34:46.957Z,99.99
2019-05-29T04:35:46.945Z,99.99
2019-05-29T04:36:46.932Z,99.99
2019-05-29T04:37:46.920Z,99.99
2019-05-29T04:38:46.907Z,99.99
2019-05-29T04:39:46.899Z,99.99
2019-05-29T04:40:46.882Z,99.99
2019-05-29T04:41:46.869Z,99.99
2019-05-29T04:42:46.857Z,99.99
2019-05-29T04:43:46.847Z,99.99
2019-05-29T04:44:46.834Z,99.99
2019-05-29T04:45:46.827Z,99.99
2019-05-29T04:46:46.811Z,99.99
2019-05-29T04:47:46.798Z,99.99
2019-05-29T04:48:46.783Z,99.99
2019-05-29T04:49:46.773Z,99.99
2019-05-29T04:50:46.760Z,99.99
2019-05-29T04:51:46.749Z,99.99
2019-05-29T04:52:46.734Z,99.99
2019-05-29T04:53:46.724Z,99.99
2019-05-29T04:54:46.713Z,99.99
2019-05-29T04:55:46.699Z,99.99
2019-05-29T04:56:46.687Z,99.99
2019-05-29T04:57:46.674Z,99.99
2019-05-29T04:58:46.662Z,99.99
2019-05-29T04:59:46.651Z,99.99
2019-05-29T05:00:58.544Z,99.99
2019-05-29T05:01:46.626Z,99.99
2019-05-29T05:02:46.614Z,99.99
2019-05-29T05:03:46.606Z,99.99
2019-05-29T05:04:46.591Z,99.99
2019-05-29T05:05:46.578Z,99.99
2019-05-29T05:06:46.567Z,99.99
2019-05-29T05:07:46.555Z,99.99
2019-05-29T05:08:46.546Z,99.99
2019-05-29T05:09:46.530Z,99.99
2019-05-29T05:10:46.520Z,99.99
2019-05-29T05:11:46.508Z,99.99
2019-05-29T05:12:46.531Z,99.99
2019-05-29T05:13:46.486Z,99.99
2019-05-29T05:14:46.474Z,99.99
2019-05-29T05:15:46.469Z,99.99
2019-05-29T05:16:46.448Z,99.99
2019-05-29T05:17:46.438Z,99.99
2019-05-29T05:18:46.425Z,99.99
2019-05-29T05:19:46.413Z,99.99
2019-05-29T05:20:46.401Z,99.99
2019-05-29T05:21:46.390Z,99.99
2019-05-29T05:22:46.379Z,99.99
2019-05-29T05:23:46.367Z,99.99
2019-05-29T05:24:46.358Z,99.99
2019-05-29T05:25:46.349Z,99.99
2019-05-29T05:26:46.339Z,99.99
2019-05-29T05:27:46.323Z,99.99
2019-05-29T05:28:47.021Z,99.99
2019-05-29T05:29:46.298Z,99.99
2019-05-29T05:30:46.287Z,99.99
2019-05-29T05:31:46.285Z,99.99
2019-05-29T05:32:46.268Z,99.99
2019-05-29T05:33:46.253Z,99.99
2019-05-29T05:34:46.268Z,99.99
2019-05-29T05:35:46.231Z,99.99
2019-05-29T05:36:46.227Z,99.99
2019-05-29T05:37:46.209Z,99.99
2019-05-29T05:38:46.199Z,99.99
2019-05-29T05:39:46.190Z,99.99
2019-05-29T05:40:46.179Z,99.99
2019-05-29T05:41:46.163Z,99.99
2019-05-29T05:42:46.154Z,99.99
2019-05-29T05:43:46.142Z,99.99
2019-05-29T05:44:46.129Z,99.99
2019-05-29T05:45:46.121Z,99.99
2019-05-29T05:46:46.114Z,99.99
2019-05-29T05:47:57.059Z,99.99
2019-05-29T05:48:46.084Z,99.99
2019-05-29T05:49:46.076Z,99.99
2019-05-29T05:50:46.066Z,99.99
2019-05-29T05:51:46.057Z,99.99
2019-05-29T05:52:46.044Z,99.99
2019-05-29T05:53:46.029Z,99.99
2019-05-29T05:54:46.020Z,99.99
2019-05-29T05:55:46.015Z,99.99
2019-05-29T05:56:45.997Z,99.99
2019-05-29T05:57:45.987Z,99.99
2019-05-29T05:58:45.977Z,99.99
2019-05-29T05:59:45.964Z,99.99
2019-05-29T06:00:45.955Z,99.99
2019-05-29T06:01:45.941Z,99.99
2019-05-29T06:02:45.931Z,99.99
2019-05-29T06:03:45.930Z,99.99
2019-05-29T06:04:45.908Z,99.99
2019-05-29T06:05:45.899Z,99.99
2019-05-29T06:06:45.898Z,99.99
2019-05-29T06:07:45.877Z,99.99
2019-05-29T06:08:45.865Z,99.99
2019-05-29T06:09:45.859Z,99.99
2019-05-29T06:10:45.845Z,99.99
2019-05-29T06:11:45.837Z,99.99
2019-05-29T06:12:45.835Z,99.99
2019-05-29T06:13:45.813Z,99.55
2019-05-29T06:14:45.819Z,99.75
2019-05-29T06:15:45.793Z,97.75
2019-05-29T06:16:45.780Z,96.98
2019-05-29T06:18:04.756Z,98.32
2019-05-29T06:18:45.760Z,97.46
2019-05-29T06:19:45.752Z,97.84
2019-05-29T06:20:45.745Z,97.32
2019-05-29T06:21:45.729Z,97.46
2019-05-29T06:22:45.718Z,97.32
2019-05-29T06:23:45.708Z,97.32
2019-05-29T06:24:45.719Z,96.65
2019-05-29T06:25:45.687Z,95.98
2019-05-29T06:26:45.678Z,95.32
2019-05-29T06:27:45.666Z,94.74
2019-05-29T06:28:45.655Z,93.12
2019-05-29T06:29:45.645Z,92.46
2019-05-29T06:30:45.635Z,93.51
2019-05-29T06:31:45.647Z,93.98
2019-05-29T06:32:45.612Z,93.88
2019-05-29T06:33:45.604Z,93.51
2019-05-29T06:34:45.598Z,92.65
2019-05-29T06:35:45.584Z,93.93
2019-05-29T06:36:48.167Z,94.98
2019-05-29T06:37:45.562Z,95.46
2019-05-29T06:38:45.553Z,94.32
2019-05-29T06:39:45.545Z,93.74
2019-05-29T06:40:45.532Z,93.17
2019-05-29T06:41:45.522Z,92.88
2019-05-29T06:42:45.513Z,92.41
2019-05-29T06:43:45.507Z,92.36
2019-05-29T06:44:48.485Z,93.51
2019-05-29T06:45:45.485Z,94.07
2019-05-29T06:46:45.587Z,90.64
2019-05-29T06:47:45.472Z,91.02
2019-05-29T06:48:58.752Z,92.07
2019-05-29T06:49:46.310Z,90.73
2019-05-29T06:50:45.438Z,91.60
2019-05-29T06:51:45.430Z,91.60
2019-05-29T06:52:45.420Z,92.83
2019-05-29T06:53:45.428Z,90.59
2019-05-29T06:54:45.406Z,89.83
2019-05-29T06:55:45.419Z,90.02
2019-05-29T06:56:45.384Z,87.25
2019-05-29T06:57:45.383Z,87.63
2019-05-29T06:58:45.412Z,87.54
2019-05-29T06:59:45.367Z,88.59
2019-05-29T07:00:45.353Z,88.49
2019-05-29T07:01:45.349Z,88.11
2019-05-29T07:02:46.776Z,86.58
2019-05-29T07:03:45.337Z,86.01
2019-05-29T07:04:45.327Z,85.44
2019-05-29T07:05:50.821Z,85.05
2019-05-29T07:06:45.318Z,85.15
2019-05-29T07:07:46.473Z,86.63
2019-05-29T07:08:48.299Z,88.15
2019-05-29T07:09:45.310Z,87.05
2019-05-29T07:10:45.300Z,84.66
2019-05-29T07:11:45.543Z,85.14
2019-05-29T07:12:46.406Z,84.89
2019-05-29T07:13:48.447Z,83.94
2019-05-29T07:14:45.285Z,82.51
2019-05-29T07:15:45.728Z,81.65
2019-05-29T07:16:55.583Z,82.03
2019-05-29T07:17:46.595Z,81.07
2019-05-29T07:19:20.504Z,81.88
2019-05-29T07:19:53.924Z,82.35
2019-05-29T07:20:45.268Z,80.73
2019-05-29T07:21:45.279Z,79.96
2019-05-29T07:22:45.265Z,81.15
2019-05-29T07:23:47.026Z,80.10
2019-05-29T07:24:45.267Z,79.62
2019-05-29T07:25:45.765Z,77.80
2019-05-29T07:26:45.539Z,78.51
2019-05-29T07:27:45.260Z,78.22
2019-05-29T07:29:02.104Z,77.26
2019-05-29T07:29:45.302Z,77.36
2019-05-29T07:30:53.563Z,77.84
2019-05-29T07:31:45.260Z,76.98
2019-05-29T07:32:56.189Z,76.31
2019-05-29T07:33:45.312Z,77.59
2019-05-29T07:34:58.160Z,77.50
2019-05-29T07:35:45.708Z,77.11
2019-05-29T07:36:46.029Z,76.86
2019-05-29T07:37:45.976Z,74.85
2019-05-29T07:38:56.131Z,74.76
2019-05-29T07:39:45.625Z,75.71
2019-05-29T07:40:47.682Z,73.41
2019-05-29T07:41:45.771Z,74.18
2019-05-29T07:42:52.579Z,73.13
2019-05-29T07:43:45.901Z,72.94
2019-05-29T07:44:46.336Z,72.20
2019-05-29T07:45:46.118Z,73.26
2019-05-29T07:46:46.950Z,72.39
2019-05-29T07:47:46.700Z,72.01
2019-05-29T07:48:46.378Z,71.34
2019-05-29T07:49:47.190Z,73.07
2019-05-29T07:50:46.257Z,72.88
2019-05-29T07:51:46.696Z,72.68
2019-05-29T07:52:46.042Z,71.34
2019-05-29T07:53:46.365Z,73.65
2019-05-29T07:54:45.782Z,71.44
2019-05-29T07:55:45.312Z,70.09
2019-05-29T07:56:46.520Z,71.44
2019-05-29T07:57:45.329Z,72.05
2019-05-29T07:58:56.449Z,71.95
2019-05-29T07:59:45.329Z,69.93
2019-05-29T08:01:06.789Z,67.44
2019-05-29T08:01:45.336Z,67.44
2019-05-29T08:02:45.489Z,69.65
2019-05-29T08:03:45.515Z,70.17
2019-05-29T08:04:45.351Z,68.44
2019-05-29T08:05:50.587Z,68.34
2019-05-29T08:06:50.513Z,68.28
2019-05-29T08:07:45.531Z,66.07
2019-05-29T08:08:45.374Z,63.83
2019-05-29T08:09:45.653Z,66.23
2019-05-29T08:10:45.574Z,64.12
2019-05-29T08:11:45.665Z,68.37
2019-05-29T08:12:50.507Z,64.15
2019-05-29T08:13:45.651Z,66.16
2019-05-29T08:14:45.826Z,65.53
2019-05-29T08:15:59.921Z,63.32
2019-05-29T08:16:46.026Z,66.30
2019-05-29T08:17:46.201Z,61.78
2019-05-29T08:18:48.788Z,62.16
2019-05-29T08:19:59.297Z,63.45
2019-05-29T08:20:46.006Z,61.74
2019-05-29T08:21:46.475Z,61.61
2019-05-29T08:22:46.404Z,60.49
2019-05-29T08:23:46.391Z,61.74
2019-05-29T08:24:46.276Z,59.92
2019-05-29T08:25:45.470Z,60.49
2019-05-29T08:26:46.727Z,60.88
2019-05-29T08:27:46.606Z,59.82
2019-05-29T08:28:46.684Z,59.05
2019-05-29T08:29:47.009Z,60.11
2019-05-29T08:30:50.320Z,61.55
2019-05-29T08:31:46.739Z,60.78
2019-05-29T08:32:45.524Z,58.73
2019-05-29T08:33:46.760Z,58.13
2019-05-29T08:34:45.535Z,60.82
2019-05-29T08:35:45.539Z,60.63
2019-05-29T08:37:00.005Z,60.08
2019-05-29T08:37:45.550Z,60.17
2019-05-29T08:38:45.831Z,59.69
2019-05-29T08:39:45.560Z,60.66
2019-05-29T08:40:45.566Z,56.23
2019-05-29T08:42:02.285Z,57.90
2019-05-29T08:42:45.578Z,56.36
2019-05-29T08:43:46.875Z,57.25
2019-05-29T08:44:45.595Z,57.37
2019-05-29T08:45:45.625Z,57.69
2019-05-29T08:47:01.763Z,52.01
2019-05-29T08:47:45.664Z,51.98
2019-05-29T08:48:45.954Z,52.56
2019-05-29T08:49:48.083Z,55.74
2019-05-29T08:50:45.763Z,53.94
2019-05-29T08:51:45.984Z,53.43
2019-05-29T08:52:46.001Z,51.92
2019-05-29T08:53:46.429Z,49.79
2019-05-29T08:54:46.031Z,50.63
2019-05-29T08:55:46.117Z,51.34
2019-05-29T08:56:46.297Z,55.87
2019-05-29T08:57:46.363Z,54.06
2019-05-29T08:58:46.292Z,53.77
2019-05-29T08:59:46.378Z,55.02
2019-05-29T09:00:49.877Z,54.96
2019-05-29T09:01:47.650Z,52.16
2019-05-29T09:02:46.661Z,52.73
2019-05-29T09:03:46.748Z,54.11
2019-05-29T09:04:47.797Z,50.71
2019-05-29T09:05:46.655Z,52.16
2019-05-29T09:06:47.033Z,53.83
2019-05-29T09:07:46.455Z,49.77
2019-05-29T09:08:46.701Z,48.97
2019-05-29T09:09:46.965Z,51.87
2019-05-29T09:10:47.122Z,53.80
2019-05-29T09:11:47.359Z,51.70
2019-05-29T09:12:54.219Z,50.16
2019-05-29T09:13:45.839Z,49.46
2019-05-29T09:14:45.851Z,50.71
2019-05-29T09:15:45.861Z,49.65
2019-05-29T09:16:45.868Z,50.71
2019-05-29T09:17:45.880Z,50.13
2019-05-29T09:18:45.890Z,49.82
2019-05-29T09:19:45.899Z,50.59
2019-05-29T09:21:02.094Z,48.88
2019-05-29T09:21:45.914Z,49.84
2019-05-29T09:22:45.924Z,49.53
2019-05-29T09:23:45.936Z,50.23
2019-05-29T09:24:45.944Z,47.22
2019-05-29T09:25:45.953Z,46.28
2019-05-29T09:26:46.650Z,50.98
2019-05-29T09:27:45.972Z,51.87
2019-05-29T09:28:45.982Z,50.69
2019-05-29T09:29:45.991Z,48.88
2019-05-29T09:30:46.000Z,52.64
2019-05-29T09:31:46.014Z,50.64
2019-05-29T09:32:51.647Z,48.81
2019-05-29T09:33:46.030Z,46.40
2019-05-29T09:34:47.717Z,48.06
2019-05-29T09:35:46.048Z,43.70
2019-05-29T09:36:46.069Z,45.03
2019-05-29T09:37:46.068Z,42.21
2019-05-29T09:38:46.087Z,42.69
2019-05-29T09:39:46.093Z,47.99
2019-05-29T09:40:46.096Z,49.24
2019-05-29T09:41:46.104Z,46.55
2019-05-29T09:42:46.118Z,47.92
2019-05-29T09:43:58.235Z,48.40
2019-05-29T09:44:46.130Z,49.29
2019-05-29T09:45:46.139Z,46.13
2019-05-29T09:46:46.152Z,43.60
2019-05-29T09:47:46.163Z,46.30
2019-05-29T09:48:49.788Z,44.87
2019-05-29T09:49:46.177Z,46.51
2019-05-29T09:50:50.546Z,43.72
2019-05-29T09:51:46.198Z,47.19
2019-05-29T09:52:46.210Z,49.41
2019-05-29T09:53:46.454Z,47.12
2019-05-29T09:54:46.230Z,41.71
2019-05-29T09:55:46.239Z,40.94
2019-05-29T09:56:46.248Z,42.68
2019-05-29T09:57:46.260Z,43.54
2019-05-29T09:58:46.274Z,41.69
2019-05-29T09:59:46.279Z,41.40
2019-05-29T10:00:46.288Z,43.62
2019-05-29T10:01:46.303Z,44.97
2019-05-29T10:02:46.308Z,46.03
2019-05-29T10:03:46.318Z,44.10
2019-05-29T10:04:46.327Z,46.44
2019-05-29T10:05:46.337Z,46.06
2019-05-29T10:06:46.349Z,44.53
2019-05-29T10:07:46.358Z,43.47
2019-05-29T10:08:46.367Z,43.01
2019-05-29T10:09:46.386Z,40.98
2019-05-29T10:10:46.443Z,40.19
2019-05-29T10:11:46.398Z,42.60
2019-05-29T10:12:46.409Z,42.39
2019-05-29T10:13:46.419Z,41.33
2019-05-29T10:14:46.452Z,41.93
2019-05-29T10:15:46.440Z,42.89
2019-05-29T10:16:46.456Z,42.02
2019-05-29T10:17:46.461Z,42.04
2019-05-29T10:18:46.472Z,43.68
2019-05-29T10:19:46.483Z,44.07
2019-05-29T10:20:46.492Z,40.78
2019-05-29T10:21:46.504Z,40.98
2019-05-29T10:22:46.514Z,41.66
2019-05-29T10:23:46.531Z,40.69
2019-05-29T10:24:46.539Z,39.26
2019-05-29T10:25:46.549Z,42.14
2019-05-29T10:26:46.580Z,41.08
2019-05-29T10:27:47.052Z,40.11
2019-05-29T10:29:02.125Z,38.45
2019-05-29T10:29:51.055Z,40.26
2019-05-29T10:30:47.800Z,44.42
2019-05-29T10:31:47.711Z,41.98
2019-05-29T10:32:48.053Z,39.37
2019-05-29T10:33:46.643Z,40.44
2019-05-29T10:34:46.644Z,42.27
2019-05-29T10:35:49.232Z,41.52
2019-05-29T10:36:49.886Z,41.91
2019-05-29T10:37:46.724Z,39.99
2019-05-29T10:38:46.685Z,40.17
2019-05-29T10:39:46.866Z,40.94
2019-05-29T10:40:56.940Z,39.97
2019-05-29T10:41:46.791Z,43.54
2019-05-29T10:42:47.111Z,43.18
2019-05-29T10:43:47.061Z,41.75
2019-05-29T10:44:46.952Z,40.50
2019-05-29T10:45:48.009Z,41.46
2019-05-29T10:46:48.420Z,42.82
2019-05-29T10:47:47.434Z,38.37
2019-05-29T10:48:49.306Z,38.64
2019-05-29T10:49:47.642Z,42.31
2019-05-29T10:50:49.407Z,40.40
2019-05-29T10:52:00.237Z,39.99
2019-05-29T10:52:47.712Z,41.25
2019-05-29T10:53:47.707Z,42.14
2019-05-29T10:54:46.858Z,41.08
2019-05-29T10:55:46.863Z,40.40
2019-05-29T10:56:46.998Z,39.06
2019-05-29T10:57:46.889Z,38.76
2019-05-29T10:58:52.443Z,38.46
2019-05-29T10:59:46.904Z,39.43
2019-05-29T11:00:47.148Z,39.82
2019-05-29T11:01:47.186Z,38.83
2019-05-29T11:02:48.161Z,42.02
2019-05-29T11:03:47.291Z,38.18
2019-05-29T11:04:50.732Z,40.42
2019-05-29T11:05:47.453Z,39.92
2019-05-29T11:06:48.051Z,37.98
2019-05-29T11:07:47.660Z,39.24
2019-05-29T11:08:47.994Z,38.28
2019-05-29T11:09:48.461Z,38.83
2019-05-29T11:10:47.916Z,39.22
2019-05-29T11:11:48.256Z,38.53
2019-05-29T11:12:48.320Z,40.07
2019-05-29T11:13:47.044Z,38.62
2019-05-29T11:14:47.054Z,39.20
2019-05-29T11:15:47.064Z,39.12
2019-05-29T11:16:47.123Z,39.90
2019-05-29T11:17:47.219Z,42.02
2019-05-29T11:18:47.530Z,41.33
2019-05-29T11:19:47.232Z,39.86
2019-05-29T11:20:47.286Z,40.03
2019-05-29T11:21:48.149Z,40.88
2019-05-29T11:22:47.572Z,41.94
2019-05-29T11:23:47.738Z,42.83
2019-05-29T11:24:47.936Z,44.37
2019-05-29T11:25:47.861Z,41.77
2019-05-29T11:26:48.362Z,40.97
2019-05-29T11:27:48.381Z,39.78
2019-05-29T11:28:48.338Z,44.49
2019-05-29T11:29:48.615Z,41.88
2019-05-29T11:30:48.584Z,44.28
2019-05-29T11:31:48.470Z,45.44
2019-05-29T11:32:49.622Z,43.41
2019-05-29T11:33:47.173Z,45.25
2019-05-29T11:34:47.183Z,46.40
2019-05-29T11:35:57.748Z,45.25
2019-05-29T11:36:47.179Z,44.65
2019-05-29T11:37:47.181Z,44.55
2019-05-29T11:38:47.187Z,43.59
2019-05-29T11:39:47.183Z,47.82
2019-05-29T11:40:47.207Z,47.63
2019-05-29T11:41:47.184Z,46.77
2019-05-29T11:42:47.184Z,46.40
2019-05-29T11:43:47.184Z,45.25
2019-05-29T11:44:47.185Z,46.21
2019-05-29T11:45:47.184Z,47.97
2019-05-29T11:46:47.185Z,50.21
2019-05-29T11:47:47.187Z,46.20
2019-05-29T11:48:47.188Z,47.67
2019-05-29T11:49:47.190Z,46.54
2019-05-29T11:50:47.193Z,46.27
2019-05-29T11:51:47.197Z,43.30
2019-05-29T11:52:47.199Z,41.56
2019-05-29T11:53:47.204Z,40.32
2019-05-29T11:54:47.210Z,41.09
2019-05-29T11:55:47.214Z,38.95
2019-05-29T11:56:47.225Z,41.17
2019-05-29T11:57:47.226Z,41.17
2019-05-29T11:58:47.228Z,42.60
2019-05-29T11:59:47.233Z,42.41
2019-05-29T12:00:47.236Z,39.80
2019-05-29T12:01:50.747Z,40.84
2019-05-29T12:02:47.250Z,41.81
2019-05-29T12:04:15.586Z,42.36
2019-05-29T12:04:47.256Z,41.48
2019-05-29T12:05:47.260Z,43.87
2019-05-29T12:06:47.261Z,45.99
2019-05-29T12:07:47.264Z,45.51
2019-05-29T12:08:47.273Z,47.72
2019-05-29T12:09:47.268Z,47.72
2019-05-29T12:10:47.271Z,43.19
2019-05-29T12:11:47.275Z,44.66
2019-05-29T12:12:47.276Z,43.14
2019-05-29T12:13:47.277Z,46.83
2019-05-29T12:15:00.754Z,45.26
2019-05-29T12:15:47.285Z,44.78
2019-05-29T12:16:47.291Z,44.20
2019-05-29T12:17:47.291Z,42.93
2019-05-29T12:18:47.290Z,44.93
2019-05-29T12:19:47.296Z,47.53
2019-05-29T12:20:47.294Z,46.69
2019-05-29T12:21:47.298Z,44.73
2019-05-29T12:23:10.777Z,47.85
2019-05-29T12:23:47.301Z,47.38
2019-05-29T12:24:47.304Z,45.38
2019-05-29T12:25:47.307Z,43.06
2019-05-29T12:26:47.316Z,45.09
2019-05-29T12:27:47.314Z,45.09
2019-05-29T12:28:47.317Z,43.59
2019-05-29T12:29:47.322Z,42.33
2019-05-29T12:30:47.326Z,43.13
2019-05-29T12:31:47.334Z,43.51
2019-05-29T12:32:47.339Z,42.37
2019-05-29T12:33:47.343Z,42.49
2019-05-29T12:34:53.689Z,40.05
2019-05-29T12:35:50.142Z,40.81
2019-05-29T12:36:47.359Z,41.85
2019-05-29T12:37:47.364Z,41.05
2019-05-29T12:38:47.370Z,42.66
2019-05-29T12:39:47.378Z,46.61
2019-05-29T12:40:47.381Z,45.55
2019-05-29T12:41:47.380Z,45.67
2019-05-29T12:42:47.385Z,45.79
2019-05-29T12:43:47.388Z,43.80
2019-05-29T12:44:47.394Z,43.34
2019-05-29T12:45:47.397Z,43.09
2019-05-29T12:46:47.404Z,41.30
2019-05-29T12:47:47.409Z,39.94
2019-05-29T12:48:47.466Z,37.92
2019-05-29T12:49:47.421Z,37.94
2019-05-29T12:50:47.427Z,36.35
2019-05-29T12:51:47.434Z,38.56
2019-05-29T12:52:47.441Z,38.43